Madrid, Spain
Current Conditions -  °F | °C
As of 5:30 PM on Saturday 25 Oct 2014 (Local Time) from LEVS Reporting Station
Clear Clear  
Wind Chill: 81°   Ceiling: Unl
Heat Index: 81°   Visibility: 6mi
Dew Point: 37°   Wind: 1mph
Humidity: 21%   Direction: NA
Pressure: 30.15"   Gusts: NA
Location:  40.42°N, 3.7°W
Report Text: LEVS 251530Z VRB01KT CAVOK 27/03 Q1021
Loading
Personal Weather Stations






























Interactive Weather Map
Tropical Storm Tracking
New forecast layout! Learn more

10-Day Weather Forecast

Advertisements
Track Severe Weather on mobile